Haxby, United Kingdom
Current Conditions -  °F | °C
As of 7:50 PM on Tuesday 21 Oct 2014 (Local Time) from EGXU Reporting Station
Clear Clear  
Wind Chill: 39°   Ceiling: Unl
Heat Index: 46°   Visibility: NA
Dew Point: 34°   Wind: 21mph
Humidity: 62%   Direction: 310°NW
Pressure: 29.85"   Gusts: 32mph
Location:  54.02°N, 1.08°W
Report Text: EGXU 211850Z AUTO 31018G28KT //// // NCD 08/01 Q1011
Loading
Personal Weather Stations






























Interactive Weather Map
Tropical Storm Tracking
New forecast layout! Learn more

10-Day Weather Forecast

Advertisements
Track Severe Weather on mobile